Time;durP1;ratioP1;P1;durP2;ratioP2;P2;SDS_P1;SDS_P2;PMS_P1;PMS_P2;Temp;Humidity;BMP_temperature;BMP_pressure;BME280_temperature;BME280_humidity;BME280_pressure;Samples;Min_cycle;Max_cycle;Signal;HPM_P1;HPM_P2
2023/05/15 00:00:39;;;;;;;8.23;5.13;;;14.70;99.90;;;;;;10291673;28;20263;-95
2023/05/15 00:05:41;;;;;;;6.10;5.18;;;14.70;99.90;;;;;;10319664;28;20249;-95
2023/05/15 00:10:44;;;;;;;9.77;5.77;;;14.60;99.90;;;;;;10293619;28;20213;-95
2023/05/15 00:16:01;;;;;;;6.93;5.77;;;14.60;99.90;;;;;;10315611;28;20251;-95
2023/05/15 00:21:04;;;;;;;5.22;4.72;;;14.60;99.90;;;;;;10305200;28;20202;-94
2023/05/15 00:26:06;;;;;;;4.43;4.03;;;14.60;99.90;;;;;;10301444;28;20237;-94
2023/05/15 00:31:11;;;;;;;4.30;3.90;;;14.70;99.90;;;;;;10311604;28;20205;-95
2023/05/15 00:36:13;;;;;;;4.18;3.88;;;14.90;99.90;;;;;;10303376;28;20218;-96
2023/05/15 00:41:17;;;;;;;4.97;3.70;;;14.90;99.90;;;;;;10273007;28;20234;-95
2023/05/15 00:46:21;;;;;;;4.90;4.50;;;14.80;99.90;;;;;;10252744;28;20203;-95
2023/05/15 00:51:25;;;;;;;5.65;5.00;;;14.70;99.90;;;;;;10259746;28;20206;-94
2023/05/15 00:56:30;;;;;;;5.28;4.75;;;14.60;99.90;;;;;;10276034;28;20273;-95
2023/05/15 01:01:33;;;;;;;4.53;4.13;;;14.40;99.90;;;;;;10272954;28;20203;-94
2023/05/15 01:06:37;;;;;;;7.38;4.55;;;14.40;99.90;;;;;;10263988;28;20199;-95
2023/05/15 01:11:41;;;;;;;6.90;4.97;;;14.50;99.90;;;;;;10255135;28;20214;-95
2023/05/15 01:16:45;;;;;;;9.23;6.10;;;14.50;99.90;;;;;;10256643;28;20252;-94
2023/05/15 01:21:56;;;;;;;7.63;5.47;;;14.50;99.90;;;;;;10269497;28;20249;-94
2023/05/15 01:27:26;;;;;;;6.97;6.13;;;14.40;99.90;;;;;;10236454;28;20253;-93
2023/05/15 01:32:46;;;;;;;7.13;6.07;;;14.30;99.90;;;;;;10253662;28;20233;-93
2023/05/15 01:38:11;;;;;;;7.43;6.70;;;14.30;99.90;;;;;;10232266;28;20328;-94
2023/05/15 01:43:20;;;;;;;6.88;6.22;;;14.30;99.90;;;;;;10267986;28;20259;-93
2023/05/15 01:48:26;;;;;;;7.67;6.87;;;14.20;99.90;;;;;;10289058;28;20237;-94
2023/05/15 01:53:33;;;;;;;6.97;6.28;;;13.90;99.90;;;;;;10243096;28;20703;-95
2023/05/15 01:58:38;;;;;;;8.38;5.70;;;13.90;99.90;;;;;;10267099;28;20261;-93
2023/05/15 02:03:42;;;;;;;7.40;6.57;;;13.90;99.90;;;;;;10275298;28;20288;-93
2023/05/15 02:08:47;;;;;;;8.63;6.70;;;13.70;99.90;;;;;;10276030;28;20218;-94
2023/05/15 02:13:50;;;;;;;8.73;6.57;;;13.80;99.90;;;;;;10262405;28;20824;-94
2023/05/15 02:18:53;;;;;;;6.72;5.70;;;13.80;99.90;;;;;;10273243;28;20292;-95
2023/05/15 02:23:56;;;;;;;7.60;6.90;;;14.00;99.90;;;;;;10296985;28;20256;-95
2023/05/15 02:29:26;;;;;;;6.70;6.10;;;14.00;99.90;;;;;;10260232;28;20246;-93
2023/05/15 02:34:47;;;;;;;3.93;3.63;;;14.10;99.90;;;;;;10261130;28;20260;-94
2023/05/15 02:39:53;;;;;;;15.75;7.47;;;14.10;99.90;;;;;;10272070;28;20257;-93
2023/05/15 02:44:56;;;;;;;5.68;5.13;;;14.10;99.90;;;;;;10301845;28;20196;-94
2023/05/15 02:50:00;;;;;;;11.77;10.03;;;14.00;99.90;;;;;;10306938;28;20205;-94
2023/05/15 02:55:03;;;;;;;13.87;8.47;;;14.20;99.90;;;;;;10301828;28;20229;-92
2023/05/15 03:00:08;;;;;;;10.80;8.90;;;14.00;99.90;;;;;;10306192;28;20303;-94
2023/05/15 03:05:11;;;;;;;7.43;6.73;;;14.00;99.90;;;;;;10294227;28;20229;-94
2023/05/15 03:10:14;;;;;;;9.27;8.33;;;14.20;99.90;;;;;;10295013;28;20225;-93
2023/05/15 03:15:17;;;;;;;8.32;6.72;;;13.90;99.90;;;;;;10297560;28;20260;-93
2023/05/15 03:20:19;;;;;;;6.87;6.10;;;13.90;99.90;;;;;;10298428;28;20256;-93
2023/05/15 03:25:23;;;;;;;7.43;6.47;;;13.90;99.90;;;;;;10307447;28;20295;-94
2023/05/15 03:30:25;;;;;;;8.70;7.23;;;14.00;99.90;;;;;;10309169;28;20702;-92
2023/05/15 03:35:29;;;;;;;16.87;9.10;;;14.10;99.90;;;;;;10316434;28;20315;-93
2023/05/15 03:40:31;;;;;;;6.60;6.00;;;14.10;99.90;;;;;;10288480;28;20320;-93
2023/05/15 03:45:34;;;;;;;9.63;8.63;;;14.00;99.90;;;;;;10309773;28;20221;-92
2023/05/15 03:50:38;;;;;;;11.10;7.40;;;14.00;99.90;;;;;;10304357;28;20241;-93
2023/05/15 03:55:40;;;;;;;11.20;8.50;;;14.30;99.90;;;;;;10308728;28;20237;-94
2023/05/15 04:00:43;;;;;;;11.00;8.55;;;13.90;99.90;;;;;;10313665;28;20305;-92
2023/05/15 04:05:48;;;;;;;11.93;9.00;;;13.90;99.90;;;;;;10296375;28;20236;-93
2023/05/15 04:10:51;;;;;;;12.17;8.63;;;13.80;99.90;;;;;;10304791;28;20241;-92
2023/05/15 04:15:53;;;;;;;9.87;8.87;;;13.50;99.90;;;;;;10301393;28;20673;-93
2023/05/15 04:20:56;;;;;;;11.43;9.30;;;13.20;99.90;;;;;;10328564;28;20659;-94
2023/05/15 04:25:59;;;;;;;14.00;10.10;;;13.20;99.90;;;;;;10300975;28;20233;-94
2023/05/15 04:31:01;;;;;;;11.27;9.00;;;13.20;99.90;;;;;;10307273;28;20269;-93
2023/05/15 04:36:05;;;;;;;12.60;10.40;;;13.00;99.90;;;;;;10311701;28;20236;-93
2023/05/15 04:41:08;;;;;;;11.80;10.00;;;13.20;99.90;;;;;;10295902;28;20315;-93
2023/05/15 04:46:10;;;;;;;12.53;9.77;;;13.20;99.90;;;;;;10294632;28;20943;-94
2023/05/15 04:51:13;;;;;;;11.35;10.07;;;13.30;99.90;;;;;;10305445;28;20236;-94
2023/05/15 04:56:15;;;;;;;13.47;9.90;;;13.20;99.90;;;;;;10321339;28;20296;-95
2023/05/15 05:01:18;;;;;;;8.43;7.50;;;13.10;99.90;;;;;;10310145;28;20649;-93
2023/05/15 05:06:22;;;;;;;12.93;9.13;;;13.50;99.90;;;;;;10305672;28;20229;-94
2023/05/15 05:11:24;;;;;;;11.57;10.37;;;13.50;99.90;;;;;;10322569;28;20236;-95
2023/05/15 05:16:27;;;;;;;11.60;9.60;;;13.70;99.90;;;;;;10316106;28;20205;-94
2023/05/15 05:21:30;;;;;;;8.57;7.73;;;13.70;99.90;;;;;;10331416;28;20291;-92
2023/05/15 05:26:33;;;;;;;8.20;7.27;;;13.90;99.90;;;;;;10300200;28;20255;-92
2023/05/15 05:31:36;;;;;;;14.77;9.63;;;14.00;99.90;;;;;;10309050;28;20252;-92
2023/05/15 05:36:38;;;;;;;11.35;9.98;;;14.20;99.90;;;;;;10317854;28;20237;-92
2023/05/15 05:41:41;;;;;;;9.93;8.97;;;14.30;99.90;;;;;;10288220;28;20336;-93
2023/05/15 05:46:44;;;;;;;15.30;10.38;;;14.30;99.90;;;;;;10276370;28;20218;-93
2023/05/15 05:51:48;;;;;;;14.68;10.80;;;14.50;99.90;;;;;;10322487;28;20642;-92
2023/05/15 05:56:50;;;;;;;10.43;9.37;;;14.60;99.90;;;;;;10294475;28;20248;-92
2023/05/15 06:01:53;;;;;;;11.03;9.67;;;14.90;99.90;;;;;;10310788;28;20280;-92
2023/05/15 06:06:56;;;;;;;14.80;10.77;;;14.80;99.90;;;;;;10327852;28;20832;-92
2023/05/15 06:11:59;;;;;;;11.43;10.30;;;14.70;99.90;;;;;;10306075;28;20209;-95
2023/05/15 06:17:02;;;;;;;14.82;13.18;;;14.60;99.90;;;;;;10303614;28;20225;-94
2023/05/15 06:22:05;;;;;;;14.37;12.67;;;14.10;99.90;;;;;;10287648;28;20257;-94
2023/05/15 06:27:08;;;;;;;18.38;13.45;;;14.40;99.90;;;;;;10289731;28;20245;-92
2023/05/15 06:32:10;;;;;;;17.90;13.55;;;14.70;99.90;;;;;;10306585;28;20232;-92
2023/05/15 06:37:13;;;;;;;21.02;15.10;;;14.70;99.90;;;;;;10290095;28;20233;-94
2023/05/15 06:42:15;;;;;;;17.00;14.82;;;14.80;99.90;;;;;;10285770;28;20269;-93
2023/05/15 06:47:19;;;;;;;15.00;12.88;;;14.90;99.90;;;;;;10308088;28;20240;-94
2023/05/15 06:52:22;;;;;;;18.10;12.38;;;14.90;99.90;;;;;;10296346;28;20233;-94
2023/05/15 06:57:25;;;;;;;16.15;12.45;;;14.80;99.90;;;;;;10285348;28;20218;-93
2023/05/15 07:02:27;;;;;;;16.60;12.52;;;14.90;99.90;;;;;;10271889;28;20295;-95
2023/05/15 07:07:30;;;;;;;16.08;12.70;;;15.10;99.90;;;;;;10285664;28;20237;-95
2023/05/15 07:12:33;;;;;;;13.85;12.02;;;15.10;99.90;;;;;;10279496;28;20304;-94
2023/05/15 07:17:35;;;;;;;12.73;11.33;;;15.10;99.90;;;;;;10286137;28;20307;-94
2023/05/15 07:22:39;;;;;;;18.35;12.50;;;15.00;99.90;;;;;;10293212;28;20295;-95
2023/05/15 07:27:57;;;;;;;13.18;11.98;;;15.00;99.90;;;;;;10304462;28;20232;-94
2023/05/15 07:32:59;;;;;;;13.88;12.45;;;14.90;99.90;;;;;;10261501;28;20269;-94
2023/05/15 07:38:02;;;;;;;15.18;13.57;;;15.20;99.90;;;;;;10316244;28;20269;-95
2023/05/15 07:43:05;;;;;;;14.13;12.67;;;15.20;99.90;;;;;;10284358;28;20284;-94
2023/05/15 07:48:18;;;;;;;15.52;12.07;;;15.10;99.90;;;;;;10286141;28;20252;-94
2023/05/15 07:53:21;;;;;;;13.63;12.15;;;15.30;99.90;;;;;;10253416;28;20205;-94
2023/05/15 07:58:24;;;;;;;12.35;10.63;;;15.40;99.90;;;;;;10291885;28;20694;-96
2023/05/15 08:03:27;;;;;;;12.47;10.67;;;15.10;99.90;;;;;;10279977;28;20213;-95
2023/05/15 08:08:30;;;;;;;11.18;9.98;;;15.10;99.90;;;;;;10280035;28;20202;-96
2023/05/15 08:13:32;;;;;;;13.35;11.95;;;15.10;99.90;;;;;;10298051;28;20264;-96
2023/05/15 08:18:35;;;;;;;17.27;13.55;;;15.40;99.90;;;;;;10280795;28;20229;-96
2023/05/15 08:23:37;;;;;;;16.15;12.80;;;15.20;99.90;;;;;;10300495;28;20225;-96
2023/05/15 08:28:40;;;;;;;18.00;15.07;;;15.30;99.90;;;;;;10315354;28;20241;-96
2023/05/15 08:33:43;;;;;;;16.30;14.30;;;15.30;99.90;;;;;;10326737;28;20197;-96
2023/05/15 08:38:52;;;;;;;16.38;13.40;;;15.20;99.90;;;;;;10302692;28;20261;-96
2023/05/15 08:43:55;;;;;;;21.55;13.32;;;15.50;99.90;;;;;;10263988;28;20202;-96
2023/05/15 08:49:01;;;;;;;11.82;10.65;;;15.80;99.90;;;;;;10262959;28;20205;-96
2023/05/15 08:54:04;;;;;;;16.73;12.82;;;15.50;99.90;;;;;;10277170;28;20213;-96
2023/05/15 08:59:07;;;;;;;12.93;11.63;;;15.30;99.90;;;;;;10277200;28;20285;-96
2023/05/15 09:04:09;;;;;;;14.07;12.60;;;15.20;99.90;;;;;;10277080;28;20253;-96
2023/05/15 09:09:12;;;;;;;17.05;14.63;;;15.20;99.90;;;;;;10278640;28;20264;-96
2023/05/15 09:14:15;;;;;;;14.60;12.30;;;15.50;99.90;;;;;;10280036;28;20615;-96
2023/05/15 09:19:22;;;;;;;16.10;11.85;;;15.40;99.90;;;;;;10264335;28;20288;-96
2023/05/15 09:24:27;;;;;;;13.95;12.57;;;15.30;99.90;;;;;;10297120;28;20206;-96
2023/05/15 09:35:29;;;;;;;16.92;14.50;;;15.60;99.90;;;;;;10479804;23;20245;-96
2023/05/15 10:08:56;;;;;;;17.98;14.13;;;15.90;99.90;;;;;;12359561;23;20178;-93
2023/05/15 10:14:00;;;;;;;16.38;14.68;;;15.80;99.90;;;;;;10219303;29;20215;-96
2023/05/15 10:19:10;;;;;;;15.07;12.80;;;15.70;99.90;;;;;;10222175;29;20235;-96
2023/05/15 10:24:18;;;;;;;14.90;13.40;;;15.90;99.90;;;;;;10215347;29;20235;-96
2023/05/15 10:29:44;;;;;;;13.05;11.75;;;15.70;99.90;;;;;;10222009;29;20235;-96
2023/05/15 10:35:01;;;;;;;12.90;11.15;;;16.30;99.90;;;;;;10211671;23;20248;-94
2023/05/15 10:40:07;;;;;;;14.60;13.07;;;15.80;99.90;;;;;;10050302;29;20281;-92
2023/05/15 10:45:11;;;;;;;14.10;12.50;;;16.00;99.90;;;;;;10051676;29;20387;-93
2023/05/15 10:50:14;;;;;;;13.55;12.07;;;15.90;99.90;;;;;;10035647;29;20278;-92
2023/05/15 10:55:17;;;;;;;13.77;12.27;;;15.80;99.90;;;;;;10051130;29;20285;-93
2023/05/15 11:00:24;;;;;;;13.27;11.88;;;16.00;99.90;;;;;;10035526;29;20726;-91
2023/05/15 11:05:26;;;;;;;13.13;11.07;;;16.00;99.90;;;;;;10034911;29;20241;-92
2023/05/15 11:10:29;;;;;;;12.30;11.10;;;16.10;99.90;;;;;;10034472;29;20630;-92
2023/05/15 11:15:46;;;;;;;12.98;11.20;;;16.00;99.90;;;;;;10034344;29;20330;-92
2023/05/15 11:20:49;;;;;;;15.20;12.15;;;16.00;99.90;;;;;;10034505;29;20742;-92
2023/05/15 11:25:54;;;;;;;12.30;11.10;;;15.90;99.90;;;;;;10033528;29;20241;-91
2023/05/15 11:31:05;;;;;;;12.00;10.80;;;16.00;99.90;;;;;;10049015;29;20221;-92
2023/05/15 11:36:10;;;;;;;12.68;11.02;;;16.00;99.90;;;;;;10058262;29;20297;-92
2023/05/15 11:41:18;;;;;;;13.70;12.20;;;16.10;99.90;;;;;;10040668;29;20727;-92
2023/05/15 11:46:20;;;;;;;13.85;11.82;;;16.20;99.90;;;;;;10057917;29;20249;-93
2023/05/15 11:51:26;;;;;;;16.98;12.85;;;16.20;99.90;;;;;;10017179;29;20307;-93
2023/05/15 11:56:28;;;;;;;14.75;13.35;;;16.40;99.90;;;;;;10053928;29;20363;-93
2023/05/15 12:01:41;;;;;;;15.02;13.52;;;16.30;99.90;;;;;;10066847;29;20289;-92
2023/05/15 12:06:48;;;;;;;16.17;13.98;;;16.20;99.90;;;;;;10040147;29;20241;-93
2023/05/15 12:11:52;;;;;;;19.10;16.00;;;16.10;99.90;;;;;;10056915;29;20754;-92
2023/05/15 12:17:03;;;;;;;16.77;15.07;;;16.10;99.90;;;;;;10055064;29;20820;-92
2023/05/15 12:22:07;;;;;;;17.02;14.60;;;16.30;99.90;;;;;;10039803;29;20725;-93
2023/05/15 12:27:10;;;;;;;16.02;14.43;;;16.10;99.90;;;;;;10053975;29;21298;-93
2023/05/15 12:32:12;;;;;;;16.10;14.38;;;16.00;99.90;;;;;;10055345;29;20241;-93
2023/05/15 12:37:19;;;;;;;15.05;13.38;;;16.20;99.90;;;;;;10062094;29;21010;-93
2023/05/15 12:42:22;;;;;;;17.15;15.40;;;16.40;99.90;;;;;;10059086;29;20761;-94
2023/05/15 12:47:26;;;;;;;15.82;14.43;;;16.40;99.90;;;;;;10069860;29;20241;-92
2023/05/15 12:52:30;;;;;;;16.23;14.63;;;16.50;99.90;;;;;;10082055;29;20302;-94
2023/05/15 12:57:34;;;;;;;14.65;13.25;;;16.50;99.90;;;;;;10057921;29;20665;-94
2023/05/15 13:02:38;;;;;;;16.42;14.88;;;16.30;99.90;;;;;;10055629;29;20325;-95
2023/05/15 13:07:42;;;;;;;17.05;15.30;;;16.40;99.90;;;;;;10055042;29;20305;-93
2023/05/15 13:12:45;;;;;;;18.23;16.33;;;16.40;99.90;;;;;;10054593;29;20245;-93
2023/05/15 13:17:50;;;;;;;16.30;14.70;;;16.60;99.90;;;;;;10038337;29;20222;-94
2023/05/15 13:22:53;;;;;;;17.42;15.65;;;16.70;99.90;;;;;;10057425;29;20269;-94
2023/05/15 13:28:01;;;;;;;18.23;16.20;;;16.50;99.90;;;;;;10055404;29;20243;-93
2023/05/15 13:33:03;;;;;;;17.67;15.82;;;16.40;99.90;;;;;;10094328;29;20277;-92
2023/05/15 13:38:06;;;;;;;17.92;15.75;;;16.30;99.90;;;;;;10081066;29;20277;-92
2023/05/15 13:43:12;;;;;;;18.63;16.75;;;16.40;99.90;;;;;;10036787;29;20277;-93
2023/05/15 13:48:15;;;;;;;18.50;15.93;;;16.60;99.90;;;;;;10016523;29;20241;-94
2023/05/15 13:53:17;;;;;;;19.40;15.75;;;16.70;99.90;;;;;;10048588;29;20649;-93
2023/05/15 13:58:20;;;;;;;19.15;16.30;;;16.50;99.90;;;;;;10050245;29;20256;-93
2023/05/15 14:03:22;;;;;;;15.25;13.75;;;16.60;99.90;;;;;;10052833;29;20730;-93
2023/05/15 14:08:26;;;;;;;17.70;15.60;;;16.50;99.90;;;;;;10063198;29;20244;-94
2023/05/15 14:13:32;;;;;;;16.77;14.98;;;16.60;99.90;;;;;;10059163;29;20735;-95
2023/05/15 14:18:34;;;;;;;13.85;12.48;;;16.70;99.90;;;;;;10057977;29;20690;-93
2023/05/15 14:23:37;;;;;;;12.43;11.30;;;16.80;99.90;;;;;;10054835;29;21054;-94
2023/05/15 14:28:39;;;;;;;13.90;12.50;;;16.60;99.90;;;;;;10072508;29;20493;-94
2023/05/15 14:33:42;;;;;;;11.55;10.23;;;16.20;99.90;;;;;;10066881;29;20316;-94
2023/05/15 14:38:46;;;;;;;12.57;10.80;;;15.60;99.90;;;;;;10053674;29;20268;-93
2023/05/15 14:43:49;;;;;;;11.67;10.40;;;15.20;99.90;;;;;;10052890;29;20273;-95
2023/05/15 14:48:51;;;;;;;12.53;11.30;;;15.10;99.90;;;;;;10037820;29;20234;-94
2023/05/15 14:53:54;;;;;;;13.77;12.30;;;14.90;99.90;;;;;;10052800;29;20306;-95
2023/05/15 14:58:56;;;;;;;12.77;11.57;;;14.80;99.90;;;;;;10040453;29;20259;-93
2023/05/15 15:03:59;;;;;;;9.33;8.53;;;14.70;99.90;;;;;;10052277;29;20732;-94
2023/05/15 15:09:02;;;;;;;11.90;9.17;;;14.50;99.90;;;;;;10069786;29;20273;-93
2023/05/15 15:14:04;;;;;;;12.37;11.10;;;14.90;99.90;;;;;;10044434;29;20886;-94
2023/05/15 15:19:07;;;;;;;12.43;11.23;;;15.30;99.90;;;;;;10043432;29;20325;-94
2023/05/15 15:24:09;;;;;;;10.97;9.93;;;15.60;99.90;;;;;;10060024;29;20344;-93
2023/05/15 15:29:12;;;;;;;10.23;9.33;;;15.50;99.90;;;;;;10057604;29;20301;-91
2023/05/15 15:34:14;;;;;;;14.63;12.37;;;15.40;99.90;;;;;;10057672;29;20253;-89
2023/05/15 15:39:17;;;;;;;12.07;10.23;;;15.30;99.90;;;;;;9754089;29;10000481;-89
2023/05/15 15:44:22;;;;;;;13.50;11.47;;;15.20;99.90;;;;;;10066506;29;20327;-94
2023/05/15 15:49:27;;;;;;;14.63;13.17;;;15.30;99.90;;;;;;10060851;29;20243;-96
2023/05/15 15:54:32;;;;;;;14.83;13.43;;;14.90;99.90;;;;;;10042302;29;20214;-94
2023/05/15 15:59:34;;;;;;;15.77;14.07;;;14.60;99.90;;;;;;10058210;29;20210;-94
2023/05/15 16:04:37;;;;;;;14.70;13.20;;;14.50;99.90;;;;;;10041085;29;20297;-93
2023/05/15 16:09:40;;;;;;;14.53;13.03;;;14.30;99.90;;;;;;10056568;29;20301;-93
2023/05/15 16:14:42;;;;;;;12.83;11.53;;;14.20;99.90;;;;;;10040175;29;20253;-94
2023/05/15 16:19:46;;;;;;;10.13;9.23;;;14.00;99.90;;;;;;10039004;29;20245;-93
2023/05/15 16:24:49;;;;;;;10.27;9.37;;;13.90;99.90;;;;;;10040865;29;20291;-94
2023/05/15 16:29:51;;;;;;;9.47;8.63;;;13.90;99.90;;;;;;10039729;29;20791;-95
2023/05/15 16:34:54;;;;;;;8.93;8.17;;;13.90;99.90;;;;;;10057036;29;20249;-94
2023/05/15 16:39:56;;;;;;;9.30;8.50;;;13.80;99.90;;;;;;10077107;29;20277;-92
2023/05/15 16:44:59;;;;;;;11.33;10.13;;;13.80;99.90;;;;;;10035757;29;20772;-90
2023/05/15 16:50:02;;;;;;;13.63;12.33;;;14.50;99.90;;;;;;10073055;29;20245;-90
2023/05/15 16:55:05;;;;;;;15.32;13.80;;;14.70;99.90;;;;;;10057147;29;20309;-89
2023/05/15 17:00:08;;;;;;;16.43;14.83;;;14.20;99.90;;;;;;10055359;29;20718;-93
2023/05/15 17:05:12;;;;;;;17.70;15.90;;;13.90;99.90;;;;;;10054915;29;20236;-90
2023/05/15 17:10:15;;;;;;;18.33;16.53;;;13.70;99.90;;;;;;10025114;29;20713;-89
2023/05/15 17:15:18;;;;;;;20.83;17.97;;;13.70;99.90;;;;;;10025262;29;20270;-90
2023/05/15 17:20:20;;;;;;;19.97;16.60;;;14.00;99.90;;;;;;10047394;29;20815;-90
2023/05/15 17:25:23;;;;;;;14.83;12.97;;;14.30;99.90;;;;;;10053882;29;20257;-90
2023/05/15 17:30:26;;;;;;;14.67;10.50;;;15.00;99.90;;;;;;10053113;29;20763;-89
2023/05/15 17:35:28;;;;;;;14.45;12.60;;;15.60;99.90;;;;;;10048314;29;20721;-91
2023/05/15 17:40:34;;;;;;;13.65;12.13;;;16.70;99.90;;;;;;10053492;29;20269;-89
2023/05/15 17:45:39;;;;;;;13.13;11.82;;;16.90;99.90;;;;;;10049807;29;20233;-90
2023/05/15 17:50:42;;;;;;;13.80;12.07;;;16.80;99.90;;;;;;10040638;29;20842;-89
2023/05/15 17:55:45;;;;;;;11.50;10.40;;;16.90;99.90;;;;;;10041649;29;20242;-88
2023/05/15 18:00:47;;;;;;;12.02;10.88;;;17.20;99.90;;;;;;10044432;29;20341;-89
2023/05/15 18:05:50;;;;;;;10.35;9.35;;;17.60;99.90;;;;;;10052496;29;20317;-89
2023/05/15 18:10:53;;;;;;;14.57;12.05;;;17.70;99.90;;;;;;10052776;29;20313;-88
2023/05/15 18:15:55;;;;;;;10.90;9.80;;;17.60;99.90;;;;;;10048437;29;20638;-91
2023/05/15 18:20:58;;;;;;;11.85;10.75;;;17.40;99.90;;;;;;10051640;29;20317;-92
2023/05/15 18:26:00;;;;;;;11.50;10.40;;;16.00;99.90;;;;;;10050539;29;20644;-89
2023/05/15 18:31:03;;;;;;;12.00;10.80;;;15.20;99.90;;;;;;10084564;29;20313;-89
2023/05/15 18:36:06;;;;;;;11.25;10.07;;;16.10;99.90;;;;;;10048607;29;20316;-90
2023/05/15 18:41:09;;;;;;;11.05;9.98;;;16.60;99.90;;;;;;10050110;29;20811;-89
2023/05/15 18:46:11;;;;;;;10.68;9.57;;;17.00;99.90;;;;;;10050526;29;20262;-91
2023/05/15 18:51:14;;;;;;;9.77;8.57;;;17.00;99.90;;;;;;10051148;29;20253;-90
2023/05/15 18:56:16;;;;;;;9.77;8.77;;;17.20;99.90;;;;;;10051465;29;20257;-90
2023/05/15 19:01:19;;;;;;;9.88;8.90;;;17.10;99.90;;;;;;10053330;29;20269;-89
2023/05/15 19:06:21;;;;;;;10.65;9.40;;;17.00;99.90;;;;;;10070672;29;20253;-90
2023/05/15 19:11:25;;;;;;;9.82;8.93;;;17.10;99.90;;;;;;10051508;29;20699;-91
2023/05/15 19:16:27;;;;;;;8.90;8.10;;;17.10;99.90;;;;;;10050371;29;20249;-91
2023/05/15 19:21:30;;;;;;;9.43;8.57;;;17.30;99.90;;;;;;10034211;29;20329;-89
2023/05/15 19:26:32;;;;;;;9.40;8.35;;;17.20;99.90;;;;;;10076396;29;20333;-89
2023/05/15 19:31:37;;;;;;;9.65;8.75;;;17.40;99.90;;;;;;10078567;29;20252;-89
2023/05/15 19:36:40;;;;;;;9.75;8.85;;;17.40;99.90;;;;;;10084085;29;20269;-89
2023/05/15 19:41:43;;;;;;;8.95;7.68;;;17.30;99.90;;;;;;10064153;29;20326;-89
2023/05/15 19:46:46;;;;;;;8.52;7.72;;;17.70;99.90;;;;;;10052354;29;20213;-89
2023/05/15 19:51:49;;;;;;;9.98;9.00;;;18.20;99.90;;;;;;10091032;29;20297;-89
2023/05/15 19:56:51;;;;;;;9.68;8.77;;;18.10;99.90;;;;;;10065691;29;20710;-89
2023/05/15 20:01:54;;;;;;;9.35;8.55;;;18.00;99.90;;;;;;10067132;29;20332;-89
2023/05/15 20:06:57;;;;;;;8.45;7.60;;;17.70;99.90;;;;;;10077763;29;20805;-89
2023/05/15 20:12:01;;;;;;;9.63;8.43;;;18.00;99.90;;;;;;10055869;29;20325;-89
2023/05/15 20:17:04;;;;;;;8.23;7.53;;;18.20;99.90;;;;;;10071860;29;20277;-89
2023/05/15 20:22:07;;;;;;;10.55;9.35;;;18.40;99.90;;;;;;10060368;29;20272;-89
2023/05/15 20:27:10;;;;;;;8.50;7.70;;;18.50;99.90;;;;;;10054873;29;20245;-89
2023/05/15 20:32:14;;;;;;;8.82;7.72;;;18.40;99.90;;;;;;10053680;29;20333;-90
2023/05/15 20:37:16;;;;;;;8.60;7.80;;;18.20;99.90;;;;;;10054302;29;20330;-90
2023/05/15 20:42:19;;;;;;;9.02;8.13;;;18.30;99.90;;;;;;10061278;29;20261;-90
2023/05/15 20:47:22;;;;;;;8.60;7.78;;;18.10;99.90;;;;;;10037560;29;20237;-90
2023/05/15 20:52:25;;;;;;;8.15;7.35;;;18.00;99.90;;;;;;10053746;29;20306;-90
2023/05/15 20:57:27;;;;;;;8.73;8.02;;;18.10;99.90;;;;;;10053403;29;20245;-89
2023/05/15 21:02:29;;;;;;;9.80;8.80;;;18.10;99.90;;;;;;10054346;29;20269;-89
2023/05/15 21:07:32;;;;;;;8.52;7.63;;;18.00;99.90;;;;;;10054646;29;20301;-90
2023/05/15 21:12:35;;;;;;;7.88;7.15;;;17.60;99.90;;;;;;10054421;29;20645;-90
2023/05/15 21:17:38;;;;;;;11.90;9.00;;;17.10;99.90;;;;;;10058946;29;20253;-89
2023/05/15 21:22:41;;;;;;;9.07;8.18;;;17.00;99.90;;;;;;10055355;29;20290;-90
2023/05/15 21:27:44;;;;;;;10.15;8.02;;;17.00;99.90;;;;;;10063240;29;20695;-90
2023/05/15 21:32:46;;;;;;;7.75;7.10;;;17.10;99.90;;;;;;10077781;29;20245;-90
2023/05/15 21:37:49;;;;;;;8.15;7.45;;;17.30;99.90;;;;;;10053189;29;20352;-92
2023/05/15 21:42:51;;;;;;;8.05;7.32;;;16.30;99.90;;;;;;10057435;29;20264;-92
2023/05/15 21:47:54;;;;;;;9.02;7.47;;;16.50;99.90;;;;;;10053315;29;20787;-92
2023/05/15 21:52:57;;;;;;;8.63;7.45;;;15.90;99.90;;;;;;10036647;29;20245;-93
2023/05/15 21:58:00;;;;;;;8.88;7.50;;;15.20;99.90;;;;;;10051432;29;20284;-92
2023/05/15 22:03:02;;;;;;;8.63;7.38;;;15.20;99.90;;;;;;10051006;29;20313;-91
2023/05/15 22:08:05;;;;;;;12.07;8.32;;;15.00;99.90;;;;;;10052130;29;20245;-91
2023/05/15 22:13:08;;;;;;;10.63;7.35;;;14.60;99.90;;;;;;10052509;29;20643;-92
2023/05/15 22:18:12;;;;;;;10.48;7.07;;;14.40;99.90;;;;;;10035062;29;20318;-92
2023/05/15 22:23:14;;;;;;;9.15;7.53;;;14.40;99.90;;;;;;10054188;29;20269;-92
2023/05/15 22:28:18;;;;;;;6.93;6.20;;;14.20;99.90;;;;;;10052145;29;20306;-92
2023/05/15 22:33:23;;;;;;;7.30;6.60;;;14.00;99.90;;;;;;10052084;29;20893;-91
2023/05/15 22:38:26;;;;;;;8.32;6.47;;;13.90;99.90;;;;;;10049980;29;20337;-92
2023/05/15 22:43:29;;;;;;;7.40;6.20;;;14.30;99.90;;;;;;10050321;29;20324;-92
2023/05/15 22:48:31;;;;;;;6.95;6.32;;;14.90;99.90;;;;;;10050271;29;20685;-92
2023/05/15 22:53:34;;;;;;;9.57;6.70;;;14.70;99.90;;;;;;10048793;29;20641;-92
2023/05/15 22:58:36;;;;;;;7.90;7.20;;;14.90;99.90;;;;;;10048645;29;20641;-93
2023/05/15 23:03:39;;;;;;;7.30;6.70;;;14.70;99.90;;;;;;10051592;29;20828;-92
2023/05/15 23:08:41;;;;;;;10.93;7.18;;;14.80;99.90;;;;;;10035382;29;20241;-93
2023/05/15 23:13:44;;;;;;;8.90;7.80;;;14.80;99.90;;;;;;10051169;29;20741;-93
2023/05/15 23:18:46;;;;;;;9.02;7.80;;;15.00;99.90;;;;;;10023038;29;20254;-93
2023/05/15 23:23:49;;;;;;;7.05;6.40;;;15.10;99.90;;;;;;10050254;29;20265;-93
2023/05/15 23:28:52;;;;;;;8.55;7.10;;;15.10;99.90;;;;;;10056737;29;20305;-93
2023/05/15 23:33:54;;;;;;;6.95;5.97;;;15.20;99.90;;;;;;10042499;29;20637;-93
2023/05/15 23:38:56;;;;;;;9.23;8.32;;;15.60;99.90;;;;;;10058576;29;20272;-92
2023/05/15 23:43:59;;;;;;;6.57;5.90;;;15.50;99.90;;;;;;10046858;29;20265;-94
2023/05/15 23:49:01;;;;;;;7.22;6.53;;;15.40;99.90;;;;;;10058597;29;20302;-93
2023/05/15 23:54:04;;;;;;;9.98;9.07;;;15.20;99.90;;;;;;10058440;29;20680;-93
2023/05/15 23:59:07;;;;;;;11.00;8.55;;;14.90;99.90;;;;;;10018883;29;20254;-93
